sensor_id;sensor_type;location;lat;lon;timestamp;P1;durP1;ratioP1;P2;durP2;ratioP2
870;SDS011;422;51.280;7.236;2023-11-21T00:00:53;19.17;;;15.57;;
870;SDS011;422;51.280;7.236;2023-11-21T00:03:21;20.67;;;16.10;;
870;SDS011;422;51.280;7.236;2023-11-21T00:05:48;22.00;;;17.20;;
870;SDS011;422;51.280;7.236;2023-11-21T00:08:16;24.57;;;16.50;;
870;SDS011;422;51.280;7.236;2023-11-21T00:10:45;18.93;;;15.37;;
870;SDS011;422;51.280;7.236;2023-11-21T00:13:13;19.40;;;14.97;;
870;SDS011;422;51.280;7.236;2023-11-21T00:15:40;28.17;;;19.03;;
870;SDS011;422;51.280;7.236;2023-11-21T00:18:08;25.87;;;18.70;;
870;SDS011;422;51.280;7.236;2023-11-21T00:20:35;24.40;;;16.23;;
870;SDS011;422;51.280;7.236;2023-11-21T00:23:03;25.60;;;15.90;;
870;SDS011;422;51.280;7.236;2023-11-21T00:25:30;28.20;;;16.77;;
870;SDS011;422;51.280;7.236;2023-11-21T00:27:59;20.47;;;14.97;;
870;SDS011;422;51.280;7.236;2023-11-21T00:30:26;18.97;;;15.00;;
870;SDS011;422;51.280;7.236;2023-11-21T00:32:54;21.23;;;15.43;;
870;SDS011;422;51.280;7.236;2023-11-21T00:35:22;26.00;;;17.03;;
870;SDS011;422;51.280;7.236;2023-11-21T00:37:49;19.30;;;15.43;;
870;SDS011;422;51.280;7.236;2023-11-21T00:40:17;26.97;;;16.67;;
870;SDS011;422;51.280;7.236;2023-11-21T00:42:46;26.07;;;14.37;;
870;SDS011;422;51.280;7.236;2023-11-21T00:45:15;19.73;;;15.37;;
870;SDS011;422;51.280;7.236;2023-11-21T00:47:42;24.53;;;16.30;;
870;SDS011;422;51.280;7.236;2023-11-21T00:50:09;23.20;;;16.00;;
870;SDS011;422;51.280;7.236;2023-11-21T00:52:37;28.30;;;18.67;;
870;SDS011;422;51.280;7.236;2023-11-21T00:55:04;31.43;;;17.03;;
870;SDS011;422;51.280;7.236;2023-11-21T00:57:36;32.90;;;18.43;;
870;SDS011;422;51.280;7.236;2023-11-21T01:00:04;36.53;;;19.00;;
870;SDS011;422;51.280;7.236;2023-11-21T01:02:40;34.33;;;18.90;;
870;SDS011;422;51.280;7.236;2023-11-21T01:05:08;38.03;;;18.33;;
870;SDS011;422;51.280;7.236;2023-11-21T01:07:35;31.53;;;17.17;;
870;SDS011;422;51.280;7.236;2023-11-21T01:10:03;34.43;;;20.03;;
870;SDS011;422;51.280;7.236;2023-11-21T01:12:32;30.00;;;17.87;;
870;SDS011;422;51.280;7.236;2023-11-21T01:15:00;28.20;;;16.40;;
870;SDS011;422;51.280;7.236;2023-11-21T01:17:29;20.77;;;15.80;;
870;SDS011;422;51.280;7.236;2023-11-21T01:19:58;23.53;;;15.93;;
870;SDS011;422;51.280;7.236;2023-11-21T01:22:25;24.20;;;18.80;;
870;SDS011;422;51.280;7.236;2023-11-21T01:24:53;27.07;;;17.50;;
870;SDS011;422;51.280;7.236;2023-11-21T01:27:21;32.63;;;20.70;;
870;SDS011;422;51.280;7.236;2023-11-21T01:29:48;25.90;;;19.33;;
870;SDS011;422;51.280;7.236;2023-11-21T01:32:18;19.10;;;15.00;;
870;SDS011;422;51.280;7.236;2023-11-21T01:34:46;22.30;;;15.57;;
870;SDS011;422;51.280;7.236;2023-11-21T01:37:15;24.13;;;16.43;;
870;SDS011;422;51.280;7.236;2023-11-21T01:39:42;18.50;;;14.97;;
870;SDS011;422;51.280;7.236;2023-11-21T01:42:10;20.00;;;15.37;;
870;SDS011;422;51.280;7.236;2023-11-21T01:44:38;19.90;;;14.80;;
870;SDS011;422;51.280;7.236;2023-11-21T01:47:05;31.67;;;17.77;;
870;SDS011;422;51.280;7.236;2023-11-21T01:49:34;23.20;;;16.30;;
870;SDS011;422;51.280;7.236;2023-11-21T01:52:02;24.10;;;16.97;;
870;SDS011;422;51.280;7.236;2023-11-21T01:54:32;30.07;;;18.13;;
870;SDS011;422;51.280;7.236;2023-11-21T01:57:02;21.27;;;16.50;;
870;SDS011;422;51.280;7.236;2023-11-21T01:59:33;27.57;;;20.00;;
870;SDS011;422;51.280;7.236;2023-11-21T02:02:02;31.27;;;18.40;;
870;SDS011;422;51.280;7.236;2023-11-21T02:04:30;27.23;;;16.77;;
870;SDS011;422;51.280;7.236;2023-11-21T02:06:58;20.50;;;17.07;;
870;SDS011;422;51.280;7.236;2023-11-21T02:09:25;23.40;;;19.20;;
870;SDS011;422;51.280;7.236;2023-11-21T02:11:56;47.00;;;27.50;;
870;SDS011;422;51.280;7.236;2023-11-21T02:14:24;34.50;;;20.60;;
870;SDS011;422;51.280;7.236;2023-11-21T02:16:53;23.70;;;15.93;;
870;SDS011;422;51.280;7.236;2023-11-21T02:19:22;24.67;;;15.60;;
870;SDS011;422;51.280;7.236;2023-11-21T02:21:51;22.17;;;15.80;;
870;SDS011;422;51.280;7.236;2023-11-21T02:24:20;25.00;;;17.43;;
870;SDS011;422;51.280;7.236;2023-11-21T02:26:48;23.63;;;16.93;;
870;SDS011;422;51.280;7.236;2023-11-21T02:29:17;23.47;;;16.77;;
870;SDS011;422;51.280;7.236;2023-11-21T02:31:47;21.30;;;16.93;;
870;SDS011;422;51.280;7.236;2023-11-21T02:34:14;24.80;;;17.63;;
870;SDS011;422;51.280;7.236;2023-11-21T02:36:42;29.40;;;19.40;;
870;SDS011;422;51.280;7.236;2023-11-21T02:39:10;26.53;;;21.37;;
870;SDS011;422;51.280;7.236;2023-11-21T02:41:39;35.13;;;22.23;;
870;SDS011;422;51.280;7.236;2023-11-21T02:44:07;34.30;;;24.27;;
870;SDS011;422;51.280;7.236;2023-11-21T02:46:35;33.20;;;24.07;;
870;SDS011;422;51.280;7.236;2023-11-21T02:49:04;27.00;;;22.40;;
870;SDS011;422;51.280;7.236;2023-11-21T02:51:32;30.87;;;24.37;;
870;SDS011;422;51.280;7.236;2023-11-21T02:54:00;40.00;;;28.10;;
870;SDS011;422;51.280;7.236;2023-11-21T02:56:30;35.30;;;25.60;;
870;SDS011;422;51.280;7.236;2023-11-21T02:58:59;32.07;;;23.63;;
870;SDS011;422;51.280;7.236;2023-11-21T03:01:27;31.80;;;24.13;;
870;SDS011;422;51.280;7.236;2023-11-21T03:03:54;38.97;;;24.73;;
870;SDS011;422;51.280;7.236;2023-11-21T03:06:22;36.47;;;24.07;;
870;SDS011;422;51.280;7.236;2023-11-21T03:08:49;32.37;;;25.27;;
870;SDS011;422;51.280;7.236;2023-11-21T03:11:17;33.43;;;23.67;;
870;SDS011;422;51.280;7.236;2023-11-21T03:13:44;30.40;;;23.77;;
870;SDS011;422;51.280;7.236;2023-11-21T03:16:13;30.30;;;23.00;;
870;SDS011;422;51.280;7.236;2023-11-21T03:18:41;33.23;;;22.97;;
870;SDS011;422;51.280;7.236;2023-11-21T03:21:09;32.77;;;24.10;;
870;SDS011;422;51.280;7.236;2023-11-21T03:23:37;32.50;;;23.67;;
870;SDS011;422;51.280;7.236;2023-11-21T03:26:05;31.03;;;22.93;;
870;SDS011;422;51.280;7.236;2023-11-21T03:28:33;30.47;;;22.60;;
870;SDS011;422;51.280;7.236;2023-11-21T03:31:00;33.70;;;22.80;;
870;SDS011;422;51.280;7.236;2023-11-21T03:33:29;25.77;;;21.13;;
870;SDS011;422;51.280;7.236;2023-11-21T03:35:56;26.03;;;20.60;;
870;SDS011;422;51.280;7.236;2023-11-21T03:38:24;32.23;;;21.50;;
870;SDS011;422;51.280;7.236;2023-11-21T03:40:51;29.30;;;22.23;;
870;SDS011;422;51.280;7.236;2023-11-21T03:43:18;29.57;;;20.63;;
870;SDS011;422;51.280;7.236;2023-11-21T03:45:46;28.83;;;20.83;;
870;SDS011;422;51.280;7.236;2023-11-21T03:48:13;26.00;;;19.80;;
870;SDS011;422;51.280;7.236;2023-11-21T03:50:42;29.07;;;19.60;;
870;SDS011;422;51.280;7.236;2023-11-21T03:53:10;28.27;;;21.70;;
870;SDS011;422;51.280;7.236;2023-11-21T03:55:37;28.80;;;19.73;;
870;SDS011;422;51.280;7.236;2023-11-21T03:58:04;28.70;;;20.97;;
870;SDS011;422;51.280;7.236;2023-11-21T04:00:31;27.10;;;19.20;;
870;SDS011;422;51.280;7.236;2023-11-21T04:02:58;26.43;;;18.50;;
870;SDS011;422;51.280;7.236;2023-11-21T04:05:26;29.70;;;19.13;;
870;SDS011;422;51.280;7.236;2023-11-21T04:07:54;29.43;;;18.33;;
870;SDS011;422;51.280;7.236;2023-11-21T04:10:21;27.30;;;19.00;;
870;SDS011;422;51.280;7.236;2023-11-21T04:12:49;24.13;;;18.33;;
870;SDS011;422;51.280;7.236;2023-11-21T04:15:16;27.13;;;18.27;;
870;SDS011;422;51.280;7.236;2023-11-21T04:17:43;27.30;;;17.93;;
870;SDS011;422;51.280;7.236;2023-11-21T04:20:10;21.30;;;16.60;;
870;SDS011;422;51.280;7.236;2023-11-21T04:22:38;26.63;;;17.10;;
870;SDS011;422;51.280;7.236;2023-11-21T04:25:10;23.90;;;17.10;;
870;SDS011;422;51.280;7.236;2023-11-21T04:27:39;26.60;;;18.03;;
870;SDS011;422;51.280;7.236;2023-11-21T04:30:09;25.53;;;18.83;;
870;SDS011;422;51.280;7.236;2023-11-21T04:32:36;23.33;;;17.87;;
870;SDS011;422;51.280;7.236;2023-11-21T04:35:04;22.00;;;17.73;;
870;SDS011;422;51.280;7.236;2023-11-21T04:37:33;29.73;;;21.50;;
870;SDS011;422;51.280;7.236;2023-11-21T04:40:01;26.27;;;20.13;;
870;SDS011;422;51.280;7.236;2023-11-21T04:42:34;28.53;;;18.50;;
870;SDS011;422;51.280;7.236;2023-11-21T04:45:02;28.60;;;20.20;;
870;SDS011;422;51.280;7.236;2023-11-21T04:47:33;26.10;;;20.00;;
870;SDS011;422;51.280;7.236;2023-11-21T04:50:01;25.67;;;19.03;;
870;SDS011;422;51.280;7.236;2023-11-21T04:52:29;24.97;;;18.87;;
870;SDS011;422;51.280;7.236;2023-11-21T04:54:56;26.93;;;18.60;;
870;SDS011;422;51.280;7.236;2023-11-21T04:57:24;27.17;;;18.47;;
870;SDS011;422;51.280;7.236;2023-11-21T04:59:52;30.00;;;18.80;;
870;SDS011;422;51.280;7.236;2023-11-21T05:02:19;24.73;;;18.00;;
870;SDS011;422;51.280;7.236;2023-11-21T05:04:47;26.10;;;17.93;;
870;SDS011;422;51.280;7.236;2023-11-21T05:07:14;24.37;;;18.93;;
870;SDS011;422;51.280;7.236;2023-11-21T05:09:43;22.87;;;17.13;;
870;SDS011;422;51.280;7.236;2023-11-21T05:12:13;23.00;;;18.77;;
870;SDS011;422;51.280;7.236;2023-11-21T05:14:41;25.60;;;17.70;;
870;SDS011;422;51.280;7.236;2023-11-21T05:17:09;22.17;;;16.87;;
870;SDS011;422;51.280;7.236;2023-11-21T05:19:39;23.97;;;17.70;;
870;SDS011;422;51.280;7.236;2023-11-21T05:22:06;20.83;;;16.90;;
870;SDS011;422;51.280;7.236;2023-11-21T05:24:34;25.00;;;18.37;;
870;SDS011;422;51.280;7.236;2023-11-21T05:27:01;23.53;;;18.13;;
870;SDS011;422;51.280;7.236;2023-11-21T05:29:28;24.07;;;19.50;;
870;SDS011;422;51.280;7.236;2023-11-21T05:31:56;30.63;;;19.20;;
870;SDS011;422;51.280;7.236;2023-11-21T05:34:24;25.83;;;18.90;;
870;SDS011;422;51.280;7.236;2023-11-21T05:36:52;28.50;;;18.73;;
870;SDS011;422;51.280;7.236;2023-11-21T05:39:19;29.33;;;20.77;;
870;SDS011;422;51.280;7.236;2023-11-21T05:41:46;26.87;;;20.40;;
870;SDS011;422;51.280;7.236;2023-11-21T05:44:14;27.57;;;18.57;;
870;SDS011;422;51.280;7.236;2023-11-21T05:46:41;23.17;;;16.90;;
870;SDS011;422;51.280;7.236;2023-11-21T05:49:09;27.83;;;17.60;;
870;SDS011;422;51.280;7.236;2023-11-21T05:51:38;24.80;;;17.57;;
870;SDS011;422;51.280;7.236;2023-11-21T05:54:05;21.47;;;17.03;;
870;SDS011;422;51.280;7.236;2023-11-21T05:56:33;28.37;;;18.67;;
870;SDS011;422;51.280;7.236;2023-11-21T05:59:00;27.57;;;18.80;;
870;SDS011;422;51.280;7.236;2023-11-21T06:01:28;24.17;;;17.83;;
870;SDS011;422;51.280;7.236;2023-11-21T06:03:55;28.53;;;19.07;;
870;SDS011;422;51.280;7.236;2023-11-21T06:06:22;26.07;;;17.23;;
870;SDS011;422;51.280;7.236;2023-11-21T06:08:52;27.33;;;18.70;;
870;SDS011;422;51.280;7.236;2023-11-21T06:11:20;23.57;;;16.77;;
870;SDS011;422;51.280;7.236;2023-11-21T06:13:48;29.87;;;19.33;;
870;SDS011;422;51.280;7.236;2023-11-21T06:16:18;27.70;;;17.70;;
870;SDS011;422;51.280;7.236;2023-11-21T06:18:45;27.40;;;17.33;;
870;SDS011;422;51.280;7.236;2023-11-21T06:21:12;23.67;;;18.43;;
870;SDS011;422;51.280;7.236;2023-11-21T06:23:41;26.03;;;18.97;;
870;SDS011;422;51.280;7.236;2023-11-21T06:26:10;22.97;;;17.27;;
870;SDS011;422;51.280;7.236;2023-11-21T06:28:38;22.80;;;17.00;;
870;SDS011;422;51.280;7.236;2023-11-21T06:31:05;27.67;;;18.00;;
870;SDS011;422;51.280;7.236;2023-11-21T06:33:32;27.60;;;18.37;;
870;SDS011;422;51.280;7.236;2023-11-21T06:36:00;28.70;;;18.87;;
870;SDS011;422;51.280;7.236;2023-11-21T06:38:27;27.77;;;18.37;;
870;SDS011;422;51.280;7.236;2023-11-21T06:40:57;26.93;;;19.37;;
870;SDS011;422;51.280;7.236;2023-11-21T06:43:28;27.87;;;19.40;;
870;SDS011;422;51.280;7.236;2023-11-21T06:45:56;24.47;;;18.53;;
870;SDS011;422;51.280;7.236;2023-11-21T06:48:23;28.00;;;18.50;;
870;SDS011;422;51.280;7.236;2023-11-21T06:50:51;23.90;;;16.80;;
870;SDS011;422;51.280;7.236;2023-11-21T06:53:19;34.40;;;18.30;;
870;SDS011;422;51.280;7.236;2023-11-21T06:55:46;29.93;;;17.63;;
870;SDS011;422;51.280;7.236;2023-11-21T06:58:13;26.10;;;17.13;;
870;SDS011;422;51.280;7.236;2023-11-21T07:00:42;32.47;;;19.87;;
870;SDS011;422;51.280;7.236;2023-11-21T07:03:12;30.40;;;19.37;;
870;SDS011;422;51.280;7.236;2023-11-21T07:05:39;29.50;;;17.63;;
870;SDS011;422;51.280;7.236;2023-11-21T07:08:06;27.63;;;19.33;;
870;SDS011;422;51.280;7.236;2023-11-21T07:10:33;47.20;;;30.37;;
870;SDS011;422;51.280;7.236;2023-11-21T07:13:01;55.40;;;36.33;;
870;SDS011;422;51.280;7.236;2023-11-21T07:15:29;41.60;;;26.43;;
870;SDS011;422;51.280;7.236;2023-11-21T07:17:57;39.53;;;22.90;;
870;SDS011;422;51.280;7.236;2023-11-21T07:20:25;103.83;;;60.27;;
870;SDS011;422;51.280;7.236;2023-11-21T07:22:53;55.13;;;35.17;;
870;SDS011;422;51.280;7.236;2023-11-21T07:25:21;47.93;;;31.00;;
870;SDS011;422;51.280;7.236;2023-11-21T07:27:48;43.90;;;25.20;;
870;SDS011;422;51.280;7.236;2023-11-21T07:30:15;36.10;;;23.63;;
870;SDS011;422;51.280;7.236;2023-11-21T07:32:43;38.40;;;23.67;;
870;SDS011;422;51.280;7.236;2023-11-21T07:35:13;38.43;;;22.33;;
870;SDS011;422;51.280;7.236;2023-11-21T07:37:40;39.70;;;23.10;;
870;SDS011;422;51.280;7.236;2023-11-21T07:40:08;47.47;;;28.10;;
870;SDS011;422;51.280;7.236;2023-11-21T07:42:36;58.00;;;35.17;;
870;SDS011;422;51.280;7.236;2023-11-21T07:45:04;48.67;;;31.00;;
870;SDS011;422;51.280;7.236;2023-11-21T07:47:33;49.37;;;28.03;;
870;SDS011;422;51.280;7.236;2023-11-21T07:50:01;43.13;;;26.03;;
870;SDS011;422;51.280;7.236;2023-11-21T07:52:30;39.40;;;22.63;;
870;SDS011;422;51.280;7.236;2023-11-21T07:54:58;42.60;;;29.97;;
870;SDS011;422;51.280;7.236;2023-11-21T07:57:25;39.73;;;25.73;;
870;SDS011;422;51.280;7.236;2023-11-21T07:59:52;32.70;;;20.03;;
870;SDS011;422;51.280;7.236;2023-11-21T08:02:20;32.57;;;20.63;;
870;SDS011;422;51.280;7.236;2023-11-21T08:04:47;33.93;;;20.47;;
870;SDS011;422;51.280;7.236;2023-11-21T08:07:15;29.40;;;16.83;;
870;SDS011;422;51.280;7.236;2023-11-21T08:09:45;26.37;;;15.87;;
870;SDS011;422;51.280;7.236;2023-11-21T08:12:14;27.30;;;18.50;;
870;SDS011;422;51.280;7.236;2023-11-21T08:14:42;33.53;;;17.60;;
870;SDS011;422;51.280;7.236;2023-11-21T08:17:09;29.90;;;18.40;;
870;SDS011;422;51.280;7.236;2023-11-21T08:19:37;24.90;;;16.97;;
870;SDS011;422;51.280;7.236;2023-11-21T08:22:04;28.93;;;16.93;;
870;SDS011;422;51.280;7.236;2023-11-21T08:24:32;26.90;;;17.00;;
870;SDS011;422;51.280;7.236;2023-11-21T08:27:01;27.90;;;17.57;;
870;SDS011;422;51.280;7.236;2023-11-21T08:29:30;29.37;;;16.50;;
870;SDS011;422;51.280;7.236;2023-11-21T08:31:57;25.77;;;17.30;;
870;SDS011;422;51.280;7.236;2023-11-21T08:34:25;30.53;;;17.00;;
870;SDS011;422;51.280;7.236;2023-11-21T08:36:53;24.77;;;16.03;;
870;SDS011;422;51.280;7.236;2023-11-21T08:39:20;23.70;;;16.30;;
870;SDS011;422;51.280;7.236;2023-11-21T08:41:49;27.00;;;16.80;;
870;SDS011;422;51.280;7.236;2023-11-21T08:44:18;25.40;;;16.53;;
870;SDS011;422;51.280;7.236;2023-11-21T08:46:48;31.30;;;18.70;;
870;SDS011;422;51.280;7.236;2023-11-21T08:49:15;29.40;;;17.60;;
870;SDS011;422;51.280;7.236;2023-11-21T08:51:44;32.80;;;19.10;;
870;SDS011;422;51.280;7.236;2023-11-21T08:54:11;39.43;;;23.00;;
870;SDS011;422;51.280;7.236;2023-11-21T08:56:39;32.97;;;22.40;;
870;SDS011;422;51.280;7.236;2023-11-21T08:59:08;32.87;;;20.93;;
870;SDS011;422;51.280;7.236;2023-11-21T09:01:37;29.20;;;20.87;;
870;SDS011;422;51.280;7.236;2023-11-21T09:04:04;26.70;;;19.53;;
870;SDS011;422;51.280;7.236;2023-11-21T09:06:32;35.97;;;23.33;;
870;SDS011;422;51.280;7.236;2023-11-21T09:09:00;34.77;;;23.37;;
870;SDS011;422;51.280;7.236;2023-11-21T09:11:30;32.30;;;20.70;;
870;SDS011;422;51.280;7.236;2023-11-21T09:13:59;37.90;;;18.27;;
870;SDS011;422;51.280;7.236;2023-11-21T09:16:26;34.83;;;20.60;;
870;SDS011;422;51.280;7.236;2023-11-21T09:18:54;32.70;;;22.37;;
870;SDS011;422;51.280;7.236;2023-11-21T09:21:22;36.17;;;22.47;;
870;SDS011;422;51.280;7.236;2023-11-21T09:23:50;36.10;;;23.63;;
870;SDS011;422;51.280;7.236;2023-11-21T09:26:17;38.50;;;23.87;;
870;SDS011;422;51.280;7.236;2023-11-21T09:28:45;39.30;;;23.67;;
870;SDS011;422;51.280;7.236;2023-11-21T09:31:13;42.10;;;25.60;;
870;SDS011;422;51.280;7.236;2023-11-21T09:33:40;46.43;;;26.30;;
870;SDS011;422;51.280;7.236;2023-11-21T09:36:12;41.00;;;25.50;;
870;SDS011;422;51.280;7.236;2023-11-21T09:38:40;43.67;;;25.27;;
870;SDS011;422;51.280;7.236;2023-11-21T09:41:09;43.23;;;22.57;;
870;SDS011;422;51.280;7.236;2023-11-21T09:43:45;42.23;;;23.60;;
870;SDS011;422;51.280;7.236;2023-11-21T09:46:17;41.57;;;24.50;;
870;SDS011;422;51.280;7.236;2023-11-21T09:48:47;35.70;;;20.60;;
870;SDS011;422;51.280;7.236;2023-11-21T09:51:19;34.03;;;22.80;;
870;SDS011;422;51.280;7.236;2023-11-21T09:53:49;37.00;;;22.20;;
870;SDS011;422;51.280;7.236;2023-11-21T09:56:18;40.83;;;23.83;;
870;SDS011;422;51.280;7.236;2023-11-21T09:58:50;39.03;;;22.80;;
870;SDS011;422;51.280;7.236;2023-11-21T10:01:21;37.07;;;20.30;;
870;SDS011;422;51.280;7.236;2023-11-21T10:03:49;38.93;;;22.80;;
870;SDS011;422;51.280;7.236;2023-11-21T10:06:17;37.30;;;21.20;;
870;SDS011;422;51.280;7.236;2023-11-21T10:08:46;37.13;;;20.97;;
870;SDS011;422;51.280;7.236;2023-11-21T10:11:15;40.43;;;20.80;;
870;SDS011;422;51.280;7.236;2023-11-21T10:13:46;39.00;;;20.47;;
870;SDS011;422;51.280;7.236;2023-11-21T10:16:16;36.23;;;20.37;;
870;SDS011;422;51.280;7.236;2023-11-21T10:18:48;34.07;;;19.20;;
870;SDS011;422;51.280;7.236;2023-11-21T10:21:21;37.30;;;21.17;;
870;SDS011;422;51.280;7.236;2023-11-21T10:23:48;34.70;;;19.13;;
870;SDS011;422;51.280;7.236;2023-11-21T10:26:19;33.80;;;18.70;;
870;SDS011;422;51.280;7.236;2023-11-21T10:28:55;37.43;;;19.20;;
870;SDS011;422;51.280;7.236;2023-11-21T10:31:23;34.83;;;18.30;;
870;SDS011;422;51.280;7.236;2023-11-21T10:33:53;36.83;;;17.90;;
870;SDS011;422;51.280;7.236;2023-11-21T10:36:26;36.83;;;20.40;;
870;SDS011;422;51.280;7.236;2023-11-21T10:38:54;33.67;;;18.43;;
870;SDS011;422;51.280;7.236;2023-11-21T10:41:22;31.20;;;18.50;;
870;SDS011;422;51.280;7.236;2023-11-21T10:43:52;30.50;;;18.50;;
870;SDS011;422;51.280;7.236;2023-11-21T10:46:21;30.70;;;17.30;;
870;SDS011;422;51.280;7.236;2023-11-21T10:48:52;37.37;;;19.60;;
870;SDS011;422;51.280;7.236;2023-11-21T10:51:21;32.63;;;18.60;;
870;SDS011;422;51.280;7.236;2023-11-21T10:53:51;32.87;;;19.00;;
870;SDS011;422;51.280;7.236;2023-11-21T10:56:18;32.93;;;20.00;;
870;SDS011;422;51.280;7.236;2023-11-21T10:58:49;37.13;;;20.20;;
870;SDS011;422;51.280;7.236;2023-11-21T11:01:17;31.00;;;18.43;;
870;SDS011;422;51.280;7.236;2023-11-21T11:03:46;25.43;;;16.00;;
870;SDS011;422;51.280;7.236;2023-11-21T11:06:14;26.23;;;15.50;;
870;SDS011;422;51.280;7.236;2023-11-21T11:08:42;23.30;;;14.90;;
870;SDS011;422;51.280;7.236;2023-11-21T11:11:12;26.73;;;14.50;;
870;SDS011;422;51.280;7.236;2023-11-21T11:13:43;23.67;;;15.47;;
870;SDS011;422;51.280;7.236;2023-11-21T11:16:12;26.87;;;15.90;;
870;SDS011;422;51.280;7.236;2023-11-21T11:18:42;25.23;;;13.63;;
870;SDS011;422;51.280;7.236;2023-11-21T11:21:15;23.23;;;14.37;;
870;SDS011;422;51.280;7.236;2023-11-21T11:23:59;27.60;;;14.23;;
870;SDS011;422;51.280;7.236;2023-11-21T11:26:47;25.87;;;13.10;;
870;SDS011;422;51.280;7.236;2023-11-21T11:29:24;23.77;;;13.37;;
870;SDS011;422;51.280;7.236;2023-11-21T11:32:03;22.97;;;13.73;;
870;SDS011;422;51.280;7.236;2023-11-21T11:34:36;23.50;;;15.07;;
870;SDS011;422;51.280;7.236;2023-11-21T11:37:10;21.70;;;12.70;;
870;SDS011;422;51.280;7.236;2023-11-21T11:39:38;26.27;;;13.10;;
870;SDS011;422;51.280;7.236;2023-11-21T11:42:11;27.70;;;13.90;;
870;SDS011;422;51.280;7.236;2023-11-21T11:44:49;27.63;;;14.73;;
870;SDS011;422;51.280;7.236;2023-11-21T11:47:19;23.40;;;13.33;;
870;SDS011;422;51.280;7.236;2023-11-21T11:49:57;22.20;;;13.00;;
870;SDS011;422;51.280;7.236;2023-11-21T11:52:32;29.23;;;15.10;;
870;SDS011;422;51.280;7.236;2023-11-21T11:55:00;28.83;;;16.90;;
870;SDS011;422;51.280;7.236;2023-11-21T11:57:31;28.73;;;17.60;;
870;SDS011;422;51.280;7.236;2023-11-21T12:00:12;31.70;;;16.50;;
870;SDS011;422;51.280;7.236;2023-11-21T12:02:45;31.50;;;16.03;;
870;SDS011;422;51.280;7.236;2023-11-21T12:05:14;31.23;;;17.80;;
870;SDS011;422;51.280;7.236;2023-11-21T12:07:47;33.67;;;17.53;;
870;SDS011;422;51.280;7.236;2023-11-21T12:10:18;29.00;;;17.13;;
870;SDS011;422;51.280;7.236;2023-11-21T12:12:49;31.20;;;17.87;;
870;SDS011;422;51.280;7.236;2023-11-21T12:15:18;30.80;;;17.57;;
870;SDS011;422;51.280;7.236;2023-11-21T12:17:46;33.17;;;17.80;;
870;SDS011;422;51.280;7.236;2023-11-21T12:20:15;35.43;;;17.77;;
870;SDS011;422;51.280;7.236;2023-11-21T12:22:46;32.07;;;18.70;;
870;SDS011;422;51.280;7.236;2023-11-21T12:25:14;38.10;;;18.97;;
870;SDS011;422;51.280;7.236;2023-11-21T12:27:44;38.50;;;19.30;;
870;SDS011;422;51.280;7.236;2023-11-21T12:30:13;41.87;;;20.57;;
870;SDS011;422;51.280;7.236;2023-11-21T12:32:42;37.10;;;20.37;;
870;SDS011;422;51.280;7.236;2023-11-21T12:35:11;34.90;;;20.17;;
870;SDS011;422;51.280;7.236;2023-11-21T12:37:39;39.40;;;21.93;;
870;SDS011;422;51.280;7.236;2023-11-21T12:40:08;44.77;;;21.87;;
870;SDS011;422;51.280;7.236;2023-11-21T12:42:41;39.53;;;21.50;;
870;SDS011;422;51.280;7.236;2023-11-21T12:45:19;39.07;;;21.90;;
870;SDS011;422;51.280;7.236;2023-11-21T12:47:51;39.40;;;19.97;;
870;SDS011;422;51.280;7.236;2023-11-21T12:50:22;44.70;;;23.27;;
870;SDS011;422;51.280;7.236;2023-11-21T12:52:54;37.73;;;22.10;;
870;SDS011;422;51.280;7.236;2023-11-21T12:55:24;45.83;;;23.10;;
870;SDS011;422;51.280;7.236;2023-11-21T12:57:52;48.73;;;25.67;;
870;SDS011;422;51.280;7.236;2023-11-21T13:00:28;50.57;;;25.50;;
870;SDS011;422;51.280;7.236;2023-11-21T13:02:59;47.83;;;24.43;;
870;SDS011;422;51.280;7.236;2023-11-21T13:05:26;49.53;;;26.40;;
870;SDS011;422;51.280;7.236;2023-11-21T13:07:55;40.60;;;21.20;;
870;SDS011;422;51.280;7.236;2023-11-21T13:10:25;41.97;;;22.33;;
870;SDS011;422;51.280;7.236;2023-11-21T13:12:56;44.00;;;22.87;;
870;SDS011;422;51.280;7.236;2023-11-21T13:15:26;42.80;;;23.20;;
870;SDS011;422;51.280;7.236;2023-11-21T13:17:56;38.30;;;21.87;;
870;SDS011;422;51.280;7.236;2023-11-21T13:20:24;42.17;;;23.40;;
870;SDS011;422;51.280;7.236;2023-11-21T13:22:52;45.77;;;23.00;;
870;SDS011;422;51.280;7.236;2023-11-21T13:25:20;36.47;;;21.30;;
870;SDS011;422;51.280;7.236;2023-11-21T13:27:48;34.70;;;20.83;;
870;SDS011;422;51.280;7.236;2023-11-21T13:30:16;38.60;;;21.20;;
870;SDS011;422;51.280;7.236;2023-11-21T13:32:49;30.17;;;19.57;;
870;SDS011;422;51.280;7.236;2023-11-21T13:35:17;30.93;;;19.77;;
870;SDS011;422;51.280;7.236;2023-11-21T13:37:56;23.20;;;16.70;;
870;SDS011;422;51.280;7.236;2023-11-21T13:40:29;25.13;;;17.87;;
870;SDS011;422;51.280;7.236;2023-11-21T13:42:56;26.30;;;18.60;;
870;SDS011;422;51.280;7.236;2023-11-21T13:45:24;29.10;;;19.70;;
870;SDS011;422;51.280;7.236;2023-11-21T13:47:55;26.37;;;19.80;;
870;SDS011;422;51.280;7.236;2023-11-21T13:50:24;28.60;;;21.00;;
870;SDS011;422;51.280;7.236;2023-11-21T13:52:58;31.03;;;21.07;;
870;SDS011;422;51.280;7.236;2023-11-21T13:55:29;23.87;;;18.30;;
870;SDS011;422;51.280;7.236;2023-11-21T13:57:56;26.37;;;18.17;;
870;SDS011;422;51.280;7.236;2023-11-21T14:00:24;22.47;;;16.83;;
870;SDS011;422;51.280;7.236;2023-11-21T14:03:13;19.53;;;15.67;;
870;SDS011;422;51.280;7.236;2023-11-21T14:05:46;22.23;;;16.37;;
870;SDS011;422;51.280;7.236;2023-11-21T14:08:16;23.93;;;16.60;;
870;SDS011;422;51.280;7.236;2023-11-21T14:10:46;23.60;;;17.60;;
870;SDS011;422;51.280;7.236;2023-11-21T14:13:20;34.13;;;17.67;;
870;SDS011;422;51.280;7.236;2023-11-21T14:15:48;25.00;;;17.17;;
870;SDS011;422;51.280;7.236;2023-11-21T14:18:24;19.60;;;16.00;;
870;SDS011;422;51.280;7.236;2023-11-21T14:20:55;26.37;;;19.60;;
870;SDS011;422;51.280;7.236;2023-11-21T14:23:23;21.27;;;17.37;;
870;SDS011;422;51.280;7.236;2023-11-21T14:25:50;22.53;;;16.50;;
870;SDS011;422;51.280;7.236;2023-11-21T14:28:18;26.47;;;17.77;;
870;SDS011;422;51.280;7.236;2023-11-21T14:30:45;23.27;;;16.50;;
870;SDS011;422;51.280;7.236;2023-11-21T14:33:13;22.50;;;17.20;;
870;SDS011;422;51.280;7.236;2023-11-21T14:35:44;23.60;;;18.53;;
870;SDS011;422;51.280;7.236;2023-11-21T14:38:12;22.30;;;17.40;;
870;SDS011;422;51.280;7.236;2023-11-21T14:40:40;23.57;;;16.53;;
870;SDS011;422;51.280;7.236;2023-11-21T14:43:07;21.47;;;17.17;;
870;SDS011;422;51.280;7.236;2023-11-21T14:45:35;20.63;;;17.00;;
870;SDS011;422;51.280;7.236;2023-11-21T14:48:04;23.10;;;17.10;;
870;SDS011;422;51.280;7.236;2023-11-21T14:50:41;20.43;;;16.70;;
870;SDS011;422;51.280;7.236;2023-11-21T14:53:36;24.10;;;18.50;;
870;SDS011;422;51.280;7.236;2023-11-21T14:56:18;26.90;;;18.97;;
870;SDS011;422;51.280;7.236;2023-11-21T14:58:52;27.77;;;20.00;;
870;SDS011;422;51.280;7.236;2023-11-21T15:01:21;27.00;;;18.53;;
870;SDS011;422;51.280;7.236;2023-11-21T15:04:02;24.27;;;18.87;;
870;SDS011;422;51.280;7.236;2023-11-21T15:06:31;28.17;;;19.03;;
870;SDS011;422;51.280;7.236;2023-11-21T15:09:01;25.80;;;18.87;;
870;SDS011;422;51.280;7.236;2023-11-21T15:11:46;26.60;;;18.90;;
870;SDS011;422;51.280;7.236;2023-11-21T15:14:14;29.90;;;20.13;;
870;SDS011;422;51.280;7.236;2023-11-21T15:16:46;30.80;;;22.07;;
870;SDS011;422;51.280;7.236;2023-11-21T15:19:17;31.70;;;21.30;;
870;SDS011;422;51.280;7.236;2023-11-21T15:21:50;32.67;;;21.47;;
870;SDS011;422;51.280;7.236;2023-11-21T15:24:19;32.20;;;21.30;;
870;SDS011;422;51.280;7.236;2023-11-21T15:26:47;35.30;;;26.60;;